sensor_id;sensor_type;location;lat;lon;timestamp;pressure;altitude;pressure_sealevel;temperature;humidity
3444;BME280;1736;52.068;6.968;2023-02-21T00:02:06;101436.03;;;8.79;100.00
3444;BME280;1736;52.068;6.968;2023-02-21T00:04:50;101428.56;;;8.71;100.00
3444;BME280;1736;52.068;6.968;2023-02-21T00:07:35;101424.63;;;8.64;100.00
3444;BME280;1736;52.068;6.968;2023-02-21T00:10:19;101426.97;;;8.69;100.00
3444;BME280;1736;52.068;6.968;2023-02-21T00:13:03;101414.97;;;8.63;100.00
3444;BME280;1736;52.068;6.968;2023-02-21T00:15:48;101421.56;;;8.70;100.00
3444;BME280;1736;52.068;6.968;2023-02-21T00:18:33;101420.25;;;8.63;100.00
3444;BME280;1736;52.068;6.968;2023-02-21T00:21:17;101424.41;;;8.67;100.00
3444;BME280;1736;52.068;6.968;2023-02-21T00:24:01;101418.56;;;8.62;100.00
3444;BME280;1736;52.068;6.968;2023-02-21T00:26:45;101431.38;;;8.68;100.00
3444;BME280;1736;52.068;6.968;2023-02-21T00:29:30;101427.81;;;8.69;100.00
3444;BME280;1736;52.068;6.968;2023-02-21T00:32:15;101425.25;;;8.68;100.00
3444;BME280;1736;52.068;6.968;2023-02-21T00:34:59;101424.41;;;8.67;100.00
3444;BME280;1736;52.068;6.968;2023-02-21T00:37:43;101431.28;;;8.70;100.00
3444;BME280;1736;52.068;6.968;2023-02-21T00:40:27;101425.63;;;8.62;100.00
3444;BME280;1736;52.068;6.968;2023-02-21T00:43:11;101431.19;;;8.71;100.00
3444;BME280;1736;52.068;6.968;2023-02-21T00:45:55;101418.16;;;8.68;100.00
3444;BME280;1736;52.068;6.968;2023-02-21T00:48:40;101423.44;;;8.68;100.00
3444;BME280;1736;52.068;6.968;2023-02-21T00:51:24;101414.59;;;8.69;100.00
3444;BME280;1736;52.068;6.968;2023-02-21T00:54:09;101421.56;;;8.70;100.00
3444;BME280;1736;52.068;6.968;2023-02-21T00:56:53;101416.69;;;8.64;100.00
3444;BME280;1736;52.068;6.968;2023-02-21T01:13:05;101405.34;;;8.62;100.00
3444;BME280;1736;52.068;6.968;2023-02-21T01:15:49;101399.50;;;8.57;100.00
3444;BME280;1736;52.068;6.968;2023-02-21T01:18:33;101406.38;;;8.60;100.00
3444;BME280;1736;52.068;6.968;2023-02-21T01:21:18;101392.09;;;8.62;100.00
3444;BME280;1736;52.068;6.968;2023-02-21T01:24:03;101400.13;;;8.61;100.00
3444;BME280;1736;52.068;6.968;2023-02-21T01:26:47;101401.19;;;8.58;100.00
3444;BME280;1736;52.068;6.968;2023-02-21T01:29:33;101406.47;;;8.58;100.00
3444;BME280;1736;52.068;6.968;2023-02-21T01:32:18;101393.81;;;8.63;100.00
3444;BME280;1736;52.068;6.968;2023-02-21T01:35:02;101397.41;;;8.62;100.00
3444;BME280;1736;52.068;6.968;2023-02-21T01:37:46;101409.66;;;8.63;100.00
3444;BME280;1736;52.068;6.968;2023-02-21T01:40:30;101411.69;;;8.60;100.00
3444;BME280;1736;52.068;6.968;2023-02-21T01:43:15;101409.03;;;8.60;100.00
3444;BME280;1736;52.068;6.968;2023-02-21T01:46:01;101404.03;;;8.55;100.00
3444;BME280;1736;52.068;6.968;2023-02-21T01:48:46;101404.59;;;8.60;100.00
3444;BME280;1736;52.068;6.968;2023-02-21T01:51:33;101399.31;;;8.60;100.00
3444;BME280;1736;52.068;6.968;2023-02-21T01:54:18;101406.19;;;8.63;100.00
3444;BME280;1736;52.068;6.968;2023-02-21T01:57:04;101393.81;;;8.63;100.00
3444;BME280;1736;52.068;6.968;2023-02-21T01:59:50;101388.06;;;8.57;100.00
3444;BME280;1736;52.068;6.968;2023-02-21T02:02:45;101394.75;;;8.62;100.00
3444;BME280;1736;52.068;6.968;2023-02-21T02:05:32;101390.78;;;8.55;100.00
3444;BME280;1736;52.068;6.968;2023-02-21T02:08:17;101381.72;;;8.59;100.00
3444;BME280;1736;52.068;6.968;2023-02-21T02:11:12;101382.47;;;8.61;100.00
3444;BME280;1736;52.068;6.968;2023-02-21T02:14:12;101374.53;;;8.61;100.00
3444;BME280;1736;52.068;6.968;2023-02-21T02:16:49;101377.47;;;8.57;100.00
3444;BME280;1736;52.068;6.968;2023-02-21T02:22:53;101382.56;;;8.60;100.00
3444;BME280;1736;52.068;6.968;2023-02-21T02:25:36;101384.44;;;8.58;100.00
3444;BME280;1736;52.068;6.968;2023-02-21T02:28:20;101370.50;;;8.56;100.00
3444;BME280;1736;52.068;6.968;2023-02-21T02:31:12;101375.16;;;8.52;100.00
3444;BME280;1736;52.068;6.968;2023-02-21T02:34:04;101379.41;;;8.67;100.00
3444;BME280;1736;52.068;6.968;2023-02-21T02:36:41;101375.69;;;8.57;100.00
3444;BME280;1736;52.068;6.968;2023-02-21T02:39:19;101377.19;;;8.61;100.00
3444;BME280;1736;52.068;6.968;2023-02-21T02:41:53;101369.63;;;8.55;100.00
3444;BME280;1736;52.068;6.968;2023-02-21T02:44:26;101370.94;;;8.62;100.00
3444;BME280;1736;52.068;6.968;2023-02-21T02:46:58;101366.25;;;8.53;100.00
3444;BME280;1736;52.068;6.968;2023-02-21T02:49:28;101368.72;;;8.56;100.00
3444;BME280;1736;52.068;6.968;2023-02-21T02:52:02;101376.78;;;8.67;100.00
3444;BME280;1736;52.068;6.968;2023-02-21T02:54:29;101377.53;;;8.69;100.00
3444;BME280;1736;52.068;6.968;2023-02-21T02:56:55;101373.41;;;8.65;100.00
3444;BME280;1736;52.068;6.968;2023-02-21T02:59:24;101383.03;;;8.66;100.00
3444;BME280;1736;52.068;6.968;2023-02-21T03:02:15;101379.38;;;8.55;100.00
3444;BME280;1736;52.068;6.968;2023-02-21T03:05:05;101389.88;;;8.56;100.00
3444;BME280;1736;52.068;6.968;2023-02-21T03:07:42;101376.53;;;8.58;100.00
3444;BME280;1736;52.068;6.968;2023-02-21T03:10:17;101382.66;;;8.58;100.00
3444;BME280;1736;52.068;6.968;2023-02-21T03:12:50;101382.13;;;8.53;100.00
3444;BME280;1736;52.068;6.968;2023-02-21T03:15:21;101376.41;;;8.59;100.00
3444;BME280;1736;52.068;6.968;2023-02-21T03:17:53;101375.72;;;8.70;100.00
3444;BME280;1736;52.068;6.968;2023-02-21T03:20:22;101372.19;;;8.57;100.00
3444;BME280;1736;52.068;6.968;2023-02-21T03:22:52;101381.72;;;8.59;100.00
3444;BME280;1736;52.068;6.968;2023-02-21T03:25:21;101386.81;;;8.62;100.00
3444;BME280;1736;52.068;6.968;2023-02-21T03:27:48;101376.66;;;8.56;100.00
3444;BME280;1736;52.068;6.968;2023-02-21T03:30:17;101384.16;;;8.62;100.00
3444;BME280;1736;52.068;6.968;2023-02-21T03:32:46;101385.91;;;8.49;100.00
3444;BME280;1736;52.068;6.968;2023-02-21T03:35:14;101380.63;;;8.49;100.00
3444;BME280;1736;52.068;6.968;2023-02-21T03:37:43;101380.22;;;8.55;100.00
3444;BME280;1736;52.068;6.968;2023-02-21T03:40:13;101381.16;;;8.54;100.00
3444;BME280;1736;52.068;6.968;2023-02-21T03:42:40;101394.13;;;8.45;100.00
3444;BME280;1736;52.068;6.968;2023-02-21T03:45:07;101395.94;;;8.44;100.00
3444;BME280;1736;52.068;6.968;2023-02-21T03:47:34;101395.63;;;8.49;100.00
3444;BME280;1736;52.068;6.968;2023-02-21T03:50:01;101400.63;;;8.53;100.00
3444;BME280;1736;52.068;6.968;2023-02-21T03:52:29;101398.47;;;8.46;100.00
3444;BME280;1736;52.068;6.968;2023-02-21T03:54:56;101398.28;;;8.49;100.00
3444;BME280;1736;52.068;6.968;2023-02-21T03:57:23;101405.56;;;8.45;100.00
3444;BME280;1736;52.068;6.968;2023-02-21T03:59:50;101406.66;;;8.55;100.00
3444;BME280;1736;52.068;6.968;2023-02-21T04:02:17;101398.38;;;8.47;100.00
3444;BME280;1736;52.068;6.968;2023-02-21T04:04:44;101401.97;;;8.46;100.00
3444;BME280;1736;52.068;6.968;2023-02-21T04:07:13;101404.72;;;8.45;100.00
3444;BME280;1736;52.068;6.968;2023-02-21T04:09:40;101398.38;;;8.47;100.00
3444;BME280;1736;52.068;6.968;2023-02-21T04:12:07;101402.16;;;8.43;100.00
3444;BME280;1736;52.068;6.968;2023-02-21T04:14:35;101404.53;;;8.48;100.00
3444;BME280;1736;52.068;6.968;2023-02-21T04:17:02;101404.44;;;8.49;100.00
3444;BME280;1736;52.068;6.968;2023-02-21T04:19:28;101399.31;;;8.46;100.00
3444;BME280;1736;52.068;6.968;2023-02-21T04:21:55;101401.97;;;8.46;100.00
3444;BME280;1736;52.068;6.968;2023-02-21T04:24:21;101398.78;;;8.41;100.00
3444;BME280;1736;52.068;6.968;2023-02-21T04:26:48;101397.81;;;8.56;100.00
3444;BME280;1736;52.068;6.968;2023-02-21T04:29:15;101391.38;;;8.46;100.00
3444;BME280;1736;52.068;6.968;2023-02-21T04:31:43;101394.31;;;8.42;100.00
3444;BME280;1736;52.068;6.968;2023-02-21T04:34:09;101393.69;;;8.38;100.00
3444;BME280;1736;52.068;6.968;2023-02-21T04:36:36;101396.59;;;8.34;100.00
3444;BME280;1736;52.068;6.968;2023-02-21T04:39:02;101399.53;;;8.29;100.00
3444;BME280;1736;52.068;6.968;2023-02-21T04:41:29;101405.09;;;8.39;100.00
3444;BME280;1736;52.068;6.968;2023-02-21T04:43:55;101400.00;;;8.36;100.00
3444;BME280;1736;52.068;6.968;2023-02-21T04:46:22;101394.06;;;8.32;100.00
3444;BME280;1736;52.068;6.968;2023-02-21T04:48:51;101398.50;;;8.32;100.00
3444;BME280;1736;52.068;6.968;2023-02-21T04:51:20;101394.91;;;8.33;100.00
3444;BME280;1736;52.068;6.968;2023-02-21T04:53:48;101388.03;;;8.30;100.00
3444;BME280;1736;52.068;6.968;2023-02-21T04:56:16;101392.47;;;8.30;100.00
3444;BME280;1736;52.068;6.968;2023-02-21T04:58:43;101384.91;;;8.24;100.00
3444;BME280;1736;52.068;6.968;2023-02-21T05:01:11;101402.28;;;8.28;100.00
3444;BME280;1736;52.068;6.968;2023-02-21T05:03:37;101389.94;;;8.28;100.00
3444;BME280;1736;52.068;6.968;2023-02-21T05:06:05;101384.81;;;8.25;100.00
3444;BME280;1736;52.068;6.968;2023-02-21T05:08:32;101391.88;;;8.25;100.00
3444;BME280;1736;52.068;6.968;2023-02-21T05:10:58;101391.97;;;8.23;100.00
3444;BME280;1736;52.068;6.968;2023-02-21T05:13:25;101392.34;;;8.31;100.00
3444;BME280;1736;52.068;6.968;2023-02-21T05:15:51;101395.22;;;8.28;100.00
3444;BME280;1736;52.068;6.968;2023-02-21T05:18:18;101392.75;;;8.25;100.00
3444;BME280;1736;52.068;6.968;2023-02-21T05:20:47;101392.94;;;8.22;100.00
3444;BME280;1736;52.068;6.968;2023-02-21T05:23:15;101404.84;;;8.29;100.00
3444;BME280;1736;52.068;6.968;2023-02-21T05:25:43;101396.34;;;8.24;100.00
3444;BME280;1736;52.068;6.968;2023-02-21T05:28:10;101395.19;;;8.14;100.00
3444;BME280;1736;52.068;6.968;2023-02-21T05:30:36;101394.13;;;8.17;100.00
3444;BME280;1736;52.068;6.968;2023-02-21T05:33:03;101390.56;;;8.18;100.00
3444;BME280;1736;52.068;6.968;2023-02-21T05:35:29;101396.69;;;8.18;100.00
3444;BME280;1736;52.068;6.968;2023-02-21T05:37:56;101385.09;;;8.21;100.00
3444;BME280;1736;52.068;6.968;2023-02-21T05:40:24;101384.25;;;8.20;100.00
3444;BME280;1736;52.068;6.968;2023-02-21T05:42:50;101374.03;;;8.14;100.00
3444;BME280;1736;52.068;6.968;2023-02-21T05:45:17;101371.09;;;8.19;100.00
3444;BME280;1736;52.068;6.968;2023-02-21T05:47:43;101377.44;;;8.16;100.00
3444;BME280;1736;52.068;6.968;2023-02-21T05:50:10;101381.13;;;8.14;100.00
3444;BME280;1736;52.068;6.968;2023-02-21T05:52:36;101375.94;;;8.12;100.00
3444;BME280;1736;52.068;6.968;2023-02-21T05:55:03;101374.44;;;8.08;100.00
3444;BME280;1736;52.068;6.968;2023-02-21T05:57:36;101382.06;;;8.13;100.00
3444;BME280;1736;52.068;6.968;2023-02-21T06:00:04;101374.44;;;8.08;100.00
3444;BME280;1736;52.068;6.968;2023-02-21T06:02:30;101380.94;;;8.03;100.00
3444;BME280;1736;52.068;6.968;2023-02-21T06:04:57;101387.91;;;8.04;100.00
3444;BME280;1736;52.068;6.968;2023-02-21T06:07:23;101384.13;;;8.08;100.00
3444;BME280;1736;52.068;6.968;2023-02-21T06:09:50;101374.22;;;8.11;100.00
3444;BME280;1736;52.068;6.968;2023-02-21T06:12:16;101374.69;;;8.04;100.00
3444;BME280;1736;52.068;6.968;2023-02-21T06:14:44;101372.91;;;8.04;100.00
3444;BME280;1736;52.068;6.968;2023-02-21T06:17:11;101374.44;;;8.08;100.00
3444;BME280;1736;52.068;6.968;2023-02-21T06:19:37;101372.72;;;8.07;100.00
3444;BME280;1736;52.068;6.968;2023-02-21T06:22:04;101375.66;;;8.03;100.00
3444;BME280;1736;52.068;6.968;2023-02-21T06:24:30;101374.63;;;8.05;100.00
3444;BME280;1736;52.068;6.968;2023-02-21T06:26:57;101375.34;;;8.07;100.00
3444;BME280;1736;52.068;6.968;2023-02-21T06:29:23;101373.38;;;8.11;100.00
3444;BME280;1736;52.068;6.968;2023-02-21T06:31:56;101371.97;;;8.05;100.00
3444;BME280;1736;52.068;6.968;2023-02-21T06:34:22;101375.56;;;8.04;100.00
3444;BME280;1736;52.068;6.968;2023-02-21T06:36:50;101379.13;;;8.03;100.00
3444;BME280;1736;52.068;6.968;2023-02-21T06:39:17;101376.75;;;8.13;100.00
3444;BME280;1736;52.068;6.968;2023-02-21T06:41:43;101385.09;;;8.07;100.00
3444;BME280;1736;52.068;6.968;2023-02-21T06:44:10;101384.91;;;8.10;100.00
3444;BME280;1736;52.068;6.968;2023-02-21T06:46:37;101379.03;;;8.05;100.00
3444;BME280;1736;52.068;6.968;2023-02-21T06:49:05;101389.50;;;8.06;100.00
3444;BME280;1736;52.068;6.968;2023-02-21T06:51:33;101383.28;;;8.07;100.00
3444;BME280;1736;52.068;6.968;2023-02-21T06:54:00;101388.69;;;8.06;100.00
3444;BME280;1736;52.068;6.968;2023-02-21T06:56:26;101385.00;;;8.08;100.00
3444;BME280;1736;52.068;6.968;2023-02-21T06:58:53;101389.16;;;8.12;100.00
3444;BME280;1736;52.068;6.968;2023-02-21T07:01:20;101395.56;;;8.08;100.00
3444;BME280;1736;52.068;6.968;2023-02-21T07:03:48;101392.34;;;8.03;100.00
3444;BME280;1736;52.068;6.968;2023-02-21T07:06:16;101391.81;;;8.12;100.00
3444;BME280;1736;52.068;6.968;2023-02-21T07:08:42;101394.13;;;8.17;100.00
3444;BME280;1736;52.068;6.968;2023-02-21T07:11:09;101389.34;;;8.09;100.00
3444;BME280;1736;52.068;6.968;2023-02-21T07:13:36;101389.50;;;8.06;100.00
3444;BME280;1736;52.068;6.968;2023-02-21T07:16:03;101395.28;;;8.13;100.00
3444;BME280;1736;52.068;6.968;2023-02-21T07:18:30;101400.47;;;8.14;100.00
3444;BME280;1736;52.068;6.968;2023-02-21T07:20:58;101399.81;;;8.11;100.00
3444;BME280;1736;52.068;6.968;2023-02-21T07:23:26;101390.28;;;8.08;100.00
3444;BME280;1736;52.068;6.968;2023-02-21T07:25:52;101393.22;;;8.04;100.00
3444;BME280;1736;52.068;6.968;2023-02-21T07:28:19;101403.41;;;8.10;100.00
3444;BME280;1736;52.068;6.968;2023-02-21T07:30:45;101403.97;;;8.15;100.00
3444;BME280;1736;52.068;6.968;2023-02-21T07:33:12;101403.19;;;8.13;100.00
3444;BME280;1736;52.068;6.968;2023-02-21T07:35:39;101405.19;;;8.09;100.00
3444;BME280;1736;52.068;6.968;2023-02-21T07:38:05;101407.44;;;8.15;100.00
3444;BME280;1736;52.068;6.968;2023-02-21T07:40:33;101412.19;;;8.10;100.00
3444;BME280;1736;52.068;6.968;2023-02-21T07:43:00;101406.72;;;8.13;100.00
3444;BME280;1736;52.068;6.968;2023-02-21T07:45:26;101404.19;;;8.26;100.00
3444;BME280;1736;52.068;6.968;2023-02-21T07:47:55;101410.84;;;8.17;100.00
3444;BME280;1736;52.068;6.968;2023-02-21T07:50:22;101415.19;;;8.18;100.00
3444;BME280;1736;52.068;6.968;2023-02-21T07:52:48;101411.81;;;8.16;100.00
3444;BME280;1736;52.068;6.968;2023-02-21T07:55:15;101405.66;;;8.16;100.00
3444;BME280;1736;52.068;6.968;2023-02-21T07:57:43;101408.03;;;8.20;100.00
3444;BME280;1736;52.068;6.968;2023-02-21T08:00:10;101406.72;;;8.13;100.00
3444;BME280;1736;52.068;6.968;2023-02-21T08:02:37;101414.00;;;8.10;100.00
3444;BME280;1736;52.068;6.968;2023-02-21T08:05:04;101413.22;;;8.08;100.00
3444;BME280;1736;52.068;6.968;2023-02-21T08:07:30;101407.44;;;8.15;100.00
3444;BME280;1736;52.068;6.968;2023-02-21T08:09:57;101415.03;;;8.21;100.00
3444;BME280;1736;52.068;6.968;2023-02-21T08:12:24;101408.50;;;8.13;100.00
3444;BME280;1736;52.068;6.968;2023-02-21T08:14:51;101415.97;;;8.20;100.00
3444;BME280;1736;52.068;6.968;2023-02-21T08:17:18;101416.41;;;8.13;100.00
3444;BME280;1736;52.068;6.968;2023-02-21T08:19:44;101416.31;;;8.14;100.00
3444;BME280;1736;52.068;6.968;2023-02-21T08:22:11;101412.72;;;8.15;100.00
3444;BME280;1736;52.068;6.968;2023-02-21T08:24:37;101408.22;;;8.17;100.00
3444;BME280;1736;52.068;6.968;2023-02-21T08:27:06;101417.84;;;8.18;100.00
3444;BME280;1736;52.068;6.968;2023-02-21T08:29:32;101417.69;;;8.21;100.00
3444;BME280;1736;52.068;6.968;2023-02-21T08:32:00;101419.38;;;8.22;100.00
3444;BME280;1736;52.068;6.968;2023-02-21T08:34:27;101415.28;;;8.17;100.00
3444;BME280;1736;52.068;6.968;2023-02-21T08:36:54;101410.22;;;8.14;100.00
3444;BME280;1736;52.068;6.968;2023-02-21T08:39:21;101416.81;;;8.21;100.00
3444;BME280;1736;52.068;6.968;2023-02-21T08:41:48;101417.50;;;8.24;100.00
3444;BME280;1736;52.068;6.968;2023-02-21T08:44:17;101417.50;;;8.24;100.00
3444;BME280;1736;52.068;6.968;2023-02-21T08:46:46;101414.66;;;8.27;100.00
3444;BME280;1736;52.068;6.968;2023-02-21T08:49:15;101416.47;;;8.27;100.00
3444;BME280;1736;52.068;6.968;2023-02-21T08:51:41;101414.78;;;8.26;100.00
3444;BME280;1736;52.068;6.968;2023-02-21T08:54:08;101412.13;;;8.26;100.00
3444;BME280;1736;52.068;6.968;2023-02-21T08:56:34;101419.00;;;8.28;100.00
3444;BME280;1736;52.068;6.968;2023-02-21T08:59:01;101416.16;;;8.31;100.00
3444;BME280;1736;52.068;6.968;2023-02-21T09:01:33;101419.84;;;8.29;100.00
3444;BME280;1736;52.068;6.968;2023-02-21T09:04:00;101426.53;;;8.34;100.00
3444;BME280;1736;52.068;6.968;2023-02-21T09:06:28;101419.16;;;8.39;100.00
3444;BME280;1736;52.068;6.968;2023-02-21T09:08:54;101420.13;;;8.38;100.00
3444;BME280;1736;52.068;6.968;2023-02-21T09:11:21;101412.38;;;8.49;100.00
3444;BME280;1736;52.068;6.968;2023-02-21T09:13:47;101409.03;;;8.46;100.00
3444;BME280;1736;52.068;6.968;2023-02-21T09:16:14;101411.03;;;8.42;100.00
3444;BME280;1736;52.068;6.968;2023-02-21T09:18:40;101413.31;;;8.48;100.00
3444;BME280;1736;52.068;6.968;2023-02-21T09:21:07;101412.56;;;8.46;100.00
3444;BME280;1736;52.068;6.968;2023-02-21T09:23:35;101413.00;;;8.53;100.00
3444;BME280;1736;52.068;6.968;2023-02-21T09:26:01;101419.53;;;8.47;100.00
3444;BME280;1736;52.068;6.968;2023-02-21T09:28:28;101413.88;;;8.53;100.00
3444;BME280;1736;52.068;6.968;2023-02-21T09:30:55;101416.41;;;8.55;100.00
3444;BME280;1736;52.068;6.968;2023-02-21T09:33:22;101414.22;;;8.61;100.00
3444;BME280;1736;52.068;6.968;2023-02-21T09:35:48;101411.41;;;8.64;100.00
3444;BME280;1736;52.068;6.968;2023-02-21T09:38:16;101405.53;;;8.59;100.00
3444;BME280;1736;52.068;6.968;2023-02-21T09:40:46;101408.75;;;8.64;100.00
3444;BME280;1736;52.068;6.968;2023-02-21T09:43:17;101406.47;;;8.58;100.00
3444;BME280;1736;52.068;6.968;2023-02-21T09:45:45;101412.63;;;8.59;100.00
3444;BME280;1736;52.068;6.968;2023-02-21T09:48:14;101408.16;;;8.59;100.00
3444;BME280;1736;52.068;6.968;2023-02-21T09:50:45;101417.81;;;8.60;100.00
3444;BME280;1736;52.068;6.968;2023-02-21T09:53:15;101416.47;;;8.67;100.00
3444;BME280;1736;52.068;6.968;2023-02-21T09:55:44;101419.88;;;8.69;100.00
3444;BME280;1736;52.068;6.968;2023-02-21T09:58:13;101419.13;;;8.67;100.00
3444;BME280;1736;52.068;6.968;2023-02-21T10:00:40;101421.56;;;8.70;100.00
3444;BME280;1736;52.068;6.968;2023-02-21T10:03:20;101410.72;;;8.61;100.00
3444;BME280;1736;52.068;6.968;2023-02-21T10:05:52;101405.34;;;8.62;100.00
3444;BME280;1736;52.068;6.968;2023-02-21T10:08:27;101408.38;;;8.56;100.00
3444;BME280;1736;52.068;6.968;2023-02-21T10:11:13;101401.44;;;8.68;100.00
3444;BME280;1736;52.068;6.968;2023-02-21T10:13:50;101397.59;;;8.59;100.00
3444;BME280;1736;52.068;6.968;2023-02-21T10:16:23;101402.09;;;8.71;100.00
3444;BME280;1736;52.068;6.968;2023-02-21T10:19:02;101407.47;;;8.70;100.00
3444;BME280;1736;52.068;6.968;2023-02-21T10:21:34;101406.44;;;8.72;100.00
3444;BME280;1736;52.068;6.968;2023-02-21T10:24:04;101416.09;;;8.73;100.00
3444;BME280;1736;52.068;6.968;2023-02-21T10:26:38;101405.69;;;8.70;100.00
3444;BME280;1736;52.068;6.968;2023-02-21T10:29:11;101413.09;;;8.65;100.00
3444;BME280;1736;52.068;6.968;2023-02-21T10:31:43;101410.38;;;8.79;100.00
3444;BME280;1736;52.068;6.968;2023-02-21T10:34:21;101416.44;;;8.81;100.00
3444;BME280;1736;52.068;6.968;2023-02-21T10:36:49;101412.66;;;8.85;100.00
3444;BME280;1736;52.068;6.968;2023-02-21T10:39:18;101418.28;;;8.93;100.00
3444;BME280;1736;52.068;6.968;2023-02-21T10:41:48;101417.84;;;8.87;100.00
3444;BME280;1736;52.068;6.968;2023-02-21T10:44:18;101416.56;;;8.92;100.00
3444;BME280;1736;52.068;6.968;2023-02-21T10:46:51;101430.56;;;8.94;100.00
3444;BME280;1736;52.068;6.968;2023-02-21T10:49:21;101415.75;;;8.92;100.00
3444;BME280;1736;52.068;6.968;2023-02-21T10:52:03;101429.44;;;8.98;100.00
3444;BME280;1736;52.068;6.968;2023-02-21T10:54:30;101427.56;;;8.86;100.00
3444;BME280;1736;52.068;6.968;2023-02-21T10:56:59;101427.81;;;8.96;100.00
3444;BME280;1736;52.068;6.968;2023-02-21T10:59:29;101428.09;;;9.05;100.00
3444;BME280;1736;52.068;6.968;2023-02-21T11:01:56;101425.66;;;8.88;100.00
3444;BME280;1736;52.068;6.968;2023-02-21T11:04:29;101431.56;;;8.79;100.00
3444;BME280;1736;52.068;6.968;2023-02-21T11:07:01;101431.97;;;8.73;100.00
3444;BME280;1736;52.068;6.968;2023-02-21T11:09:36;101434.19;;;8.79;100.00
3444;BME280;1736;52.068;6.968;2023-02-21T11:12:15;101425.03;;;8.85;100.00
3444;BME280;1736;52.068;6.968;2023-02-21T11:14:43;101424.94;;;8.86;100.00
3444;BME280;1736;52.068;6.968;2023-02-21T11:17:15;101429.06;;;8.90;100.00
3444;BME280;1736;52.068;6.968;2023-02-21T11:19:48;101425.88;;;8.85;100.00
3444;BME280;1736;52.068;6.968;2023-02-21T11:22:17;101422.44;;;8.97;100.00
3444;BME280;1736;52.068;6.968;2023-02-21T11:24:55;101424.84;;;9.00;100.00
3444;BME280;1736;52.068;6.968;2023-02-21T11:27:26;101428.91;;;9.06;100.00
3444;BME280;1736;52.068;6.968;2023-02-21T11:29:53;101423.13;;;9.13;100.00
3444;BME280;1736;52.068;6.968;2023-02-21T11:32:25;101425.09;;;9.10;100.00
3444;BME280;1736;52.068;6.968;2023-02-21T11:35:00;101423.88;;;9.15;100.00
3444;BME280;1736;52.068;6.968;2023-02-21T11:37:27;101426.34;;;9.04;100.00
3444;BME280;1736;52.068;6.968;2023-02-21T11:39:56;101419.97;;;8.94;100.00
3444;BME280;1736;52.068;6.968;2023-02-21T11:42:28;101417.44;;;8.93;100.00
3444;BME280;1736;52.068;6.968;2023-02-21T11:45:10;101412.19;;;9.05;100.00
3444;BME280;1736;52.068;6.968;2023-02-21T11:47:43;101414.53;;;9.10;100.00
3444;BME280;1736;52.068;6.968;2023-02-21T11:50:17;101418.13;;;9.09;100.00
3444;BME280;1736;52.068;6.968;2023-02-21T11:52:51;101417.16;;;9.10;100.00
3444;BME280;1736;52.068;6.968;2023-02-21T11:55:22;101414.41;;;9.11;100.00
3444;BME280;1736;52.068;6.968;2023-02-21T11:57:57;101403.84;;;9.11;100.00
3444;BME280;1736;52.068;6.968;2023-02-21T12:00:30;101401.38;;;9.08;100.00
3444;BME280;1736;52.068;6.968;2023-02-21T12:03:11;101396.84;;;9.10;100.00
3444;BME280;1736;52.068;6.968;2023-02-21T12:05:49;101395.34;;;9.06;100.00
3444;BME280;1736;52.068;6.968;2023-02-21T12:08:27;101397.75;;;8.97;100.00
3444;BME280;1736;52.068;6.968;2023-02-21T12:11:06;101401.56;;;8.93;100.00
3444;BME280;1736;52.068;6.968;2023-02-21T12:13:44;101386.81;;;8.89;100.00
3444;BME280;1736;52.068;6.968;2023-02-21T12:16:22;101390.09;;;8.92;100.00
3444;BME280;1736;52.068;6.968;2023-02-21T12:19:04;101390.97;;;8.93;100.00
3444;BME280;1736;52.068;6.968;2023-02-21T12:21:47;101382.06;;;8.94;100.00
3444;BME280;1736;52.068;6.968;2023-02-21T12:24:26;101382.31;;;9.03;100.00
3444;BME280;1736;52.068;6.968;2023-02-21T12:27:01;101372.78;;;9.01;100.00
3444;BME280;1736;52.068;6.968;2023-02-21T12:29:45;101371.47;;;8.94;100.00
3444;BME280;1736;52.068;6.968;2023-02-21T12:32:34;101365.88;;;8.98;100.00
3444;BME280;1736;52.068;6.968;2023-02-21T12:38:08;101364.94;;;8.99;100.00
3444;BME280;1736;52.068;6.968;2023-02-21T12:40:44;101371.19;;;8.98;100.00
3444;BME280;1736;52.068;6.968;2023-02-21T12:43:25;101363.06;;;9.14;100.00
3444;BME280;1736;52.068;6.968;2023-02-21T12:46:02;101367.06;;;9.07;100.00
3444;BME280;1736;52.068;6.968;2023-02-21T12:48:38;101364.75;;;9.15;100.00
3444;BME280;1736;52.068;6.968;2023-02-21T12:51:10;101368.88;;;9.06;100.00
3444;BME280;1736;52.068;6.968;2023-02-21T12:53:42;101367.63;;;9.12;100.00
3444;BME280;1736;52.068;6.968;2023-02-21T12:56:14;101367.88;;;9.21;100.00
3444;BME280;1736;52.068;6.968;2023-02-21T12:58:46;101359.50;;;9.27;100.00
3444;BME280;1736;52.068;6.968;2023-02-21T13:01:19;101355.66;;;9.19;100.00
3444;BME280;1736;52.068;6.968;2023-02-21T13:04:02;101360.22;;;9.29;100.00
3444;BME280;1736;52.068;6.968;2023-02-21T13:06:32;101352.50;;;9.39;100.00
3444;BME280;1736;52.068;6.968;2023-02-21T13:09:10;101348.25;;;9.36;100.00
3444;BME280;1736;52.068;6.968;2023-02-21T13:11:41;101345.13;;;9.44;100.00
3444;BME280;1736;52.068;6.968;2023-02-21T13:14:15;101344.28;;;9.56;100.00
3444;BME280;1736;52.068;6.968;2023-02-21T13:16:44;101343.84;;;9.62;100.00
3444;BME280;1736;52.068;6.968;2023-02-21T13:19:12;101338.75;;;9.46;100.00
3444;BME280;1736;52.068;6.968;2023-02-21T13:21:50;101330.56;;;9.49;100.00
3444;BME280;1736;52.068;6.968;2023-02-21T13:24:39;101327.41;;;9.44;100.00
3444;BME280;1736;52.068;6.968;2023-02-21T13:27:33;101325.59;;;9.32;100.00
3444;BME280;1736;52.068;6.968;2023-02-21T13:30:12;101316.16;;;9.28;100.00
3444;BME280;1736;52.068;6.968;2023-02-21T13:32:50;101322.44;;;9.40;100.00
3444;BME280;1736;52.068;6.968;2023-02-21T13:35:19;101313.94;;;9.47;100.00
3444;BME280;1736;52.068;6.968;2023-02-21T13:37:49;101306.41;;;9.54;100.00
3444;BME280;1736;52.068;6.968;2023-02-21T13:40:20;101309.38;;;9.49;100.00
3444;BME280;1736;52.068;6.968;2023-02-21T13:42:58;101307.59;;;9.50;100.00
3444;BME280;1736;52.068;6.968;2023-02-21T13:45:26;101310.53;;;9.45;100.00
3444;BME280;1736;52.068;6.968;2023-02-21T13:48:24;101309.72;;;9.45;100.00
3444;BME280;1736;52.068;6.968;2023-02-21T13:50:52;101306.09;;;9.46;100.00
3444;BME280;1736;52.068;6.968;2023-02-21T13:53:21;101306.72;;;9.49;100.00
3444;BME280;1736;52.068;6.968;2023-02-21T13:58:51;101309.06;;;9.54;100.00
3444;BME280;1736;52.068;6.968;2023-02-21T14:01:38;101297.00;;;9.50;100.00